createdAt,value
2023-06-29T00:00:28.620Z,28.34
2023-06-29T00:01:28.734Z,28.34
2023-06-29T00:02:28.736Z,28.34
2023-06-29T00:03:28.840Z,28.31
2023-06-29T00:04:28.792Z,28.33
2023-06-29T00:05:28.896Z,28.33
2023-06-29T00:06:28.918Z,28.34
2023-06-29T00:07:28.946Z,28.33
2023-06-29T00:08:28.972Z,28.31
2023-06-29T00:09:29.015Z,28.34
2023-06-29T00:10:29.069Z,28.33
2023-06-29T00:11:29.071Z,28.30
2023-06-29T00:12:29.160Z,28.30
2023-06-29T00:13:29.193Z,28.30
2023-06-29T00:14:29.241Z,28.28
2023-06-29T00:15:29.252Z,28.31
2023-06-29T00:16:29.367Z,28.28
2023-06-29T00:17:29.388Z,28.31
2023-06-29T00:18:29.463Z,28.28
2023-06-29T00:19:29.477Z,28.28
2023-06-29T00:20:29.547Z,28.28
2023-06-29T00:21:29.674Z,28.27
2023-06-29T00:22:29.736Z,28.28
2023-06-29T00:23:29.622Z,28.28
2023-06-29T00:24:29.660Z,28.28
2023-06-29T00:25:29.686Z,28.28
2023-06-29T00:26:29.750Z,28.28
2023-06-29T00:27:29.786Z,28.28
2023-06-29T00:28:29.817Z,28.24
2023-06-29T00:29:29.860Z,28.25
2023-06-29T00:30:30.001Z,28.25
2023-06-29T00:31:29.967Z,28.24
2023-06-29T00:32:30.076Z,28.25
2023-06-29T00:33:30.090Z,28.25
2023-06-29T00:34:30.117Z,28.23
2023-06-29T00:35:30.164Z,28.24
2023-06-29T00:36:30.228Z,28.24
2023-06-29T00:37:30.238Z,28.25
2023-06-29T00:38:30.330Z,28.24
2023-06-29T00:39:30.354Z,28.23
2023-06-29T00:40:30.369Z,28.25
2023-06-29T00:41:30.412Z,28.24
2023-06-29T00:42:30.489Z,28.21
2023-06-29T00:43:30.602Z,28.21
2023-06-29T00:44:30.606Z,28.24
2023-06-29T00:45:30.644Z,28.23
2023-06-29T00:46:30.755Z,28.23
2023-06-29T00:47:30.764Z,28.23
2023-06-29T00:48:30.805Z,28.21
2023-06-29T00:49:30.869Z,28.21
2023-06-29T00:50:30.924Z,28.18
2023-06-29T00:51:30.965Z,28.23
2023-06-29T00:52:30.973Z,28.20
2023-06-29T00:53:31.009Z,28.21
2023-06-29T00:54:31.085Z,28.20
2023-06-29T00:55:31.129Z,28.20
2023-06-29T00:56:31.165Z,28.21
2023-06-29T00:57:31.238Z,28.18
2023-06-29T00:58:31.289Z,28.20
2023-06-29T00:59:31.326Z,28.20
2023-06-29T01:00:31.422Z,28.21
2023-06-29T01:01:31.462Z,28.18
2023-06-29T01:02:31.652Z,28.18
2023-06-29T01:03:31.656Z,28.18
2023-06-29T01:04:31.637Z,28.18
2023-06-29T01:05:31.675Z,28.17
2023-06-29T01:06:31.701Z,28.17
2023-06-29T01:07:31.872Z,28.18
2023-06-29T01:08:31.819Z,28.17
2023-06-29T01:09:31.944Z,28.18
2023-06-29T01:10:31.912Z,28.14
2023-06-29T01:11:31.988Z,28.18
2023-06-29T01:12:32.036Z,28.18
2023-06-29T01:13:32.111Z,28.15
2023-06-29T01:14:32.167Z,28.14
2023-06-29T01:15:32.225Z,28.15
2023-06-29T01:16:32.293Z,28.14
2023-06-29T01:17:32.420Z,28.14
2023-06-29T01:18:32.404Z,28.15
2023-06-29T01:19:32.476Z,28.14
2023-06-29T01:20:32.541Z,28.15
2023-06-29T01:21:32.570Z,28.11
2023-06-29T01:22:32.690Z,28.14
2023-06-29T01:23:32.816Z,28.14
2023-06-29T01:24:32.753Z,28.14
2023-06-29T01:25:32.805Z,28.13
2023-06-29T01:26:32.832Z,28.14
2023-06-29T01:27:32.924Z,28.14
2023-06-29T01:28:32.996Z,28.14
2023-06-29T01:29:33.046Z,28.13
2023-06-29T01:30:33.588Z,28.14
2023-06-29T01:31:33.162Z,28.11
2023-06-29T01:32:33.202Z,28.13
2023-06-29T01:33:33.278Z,28.13
2023-06-29T01:34:33.341Z,28.13
2023-06-29T01:35:33.392Z,28.15
2023-06-29T01:36:33.424Z,28.13
2023-06-29T01:37:33.465Z,28.13
2023-06-29T01:38:33.547Z,28.10
2023-06-29T01:39:33.625Z,28.13
2023-06-29T01:40:33.734Z,28.10
2023-06-29T01:41:33.749Z,28.11
2023-06-29T01:42:33.793Z,28.11
2023-06-29T01:43:33.868Z,28.08
2023-06-29T01:44:33.914Z,28.10
2023-06-29T01:45:33.962Z,28.13
2023-06-29T01:46:34.222Z,28.10
2023-06-29T01:47:34.149Z,28.11
2023-06-29T01:48:34.164Z,28.11
2023-06-29T01:49:34.194Z,28.10
2023-06-29T01:50:34.258Z,28.08
2023-06-29T01:51:34.322Z,28.10
2023-06-29T01:52:34.375Z,28.10
2023-06-29T01:53:34.426Z,28.07
2023-06-29T01:54:34.524Z,28.08
2023-06-29T01:55:34.550Z,28.10
2023-06-29T01:56:34.599Z,28.08
2023-06-29T01:57:34.665Z,28.08
2023-06-29T01:58:34.686Z,28.10
2023-06-29T01:59:34.770Z,28.08
2023-06-29T02:00:37.073Z,28.08
2023-06-29T02:01:34.994Z,28.08
2023-06-29T02:02:34.883Z,28.08
2023-06-29T02:03:34.986Z,28.08
2023-06-29T02:04:34.810Z,28.07
2023-06-29T02:05:34.808Z,28.05
2023-06-29T02:06:34.796Z,28.05
2023-06-29T02:07:34.848Z,28.08
2023-06-29T02:08:34.796Z,28.04
2023-06-29T02:09:34.765Z,28.05
2023-06-29T02:10:34.782Z,28.07
2023-06-29T02:11:34.737Z,28.04
2023-06-29T02:12:34.760Z,28.05
2023-06-29T02:13:34.715Z,28.05
2023-06-29T02:14:34.755Z,28.04
2023-06-29T02:15:34.722Z,28.05
2023-06-29T02:16:34.869Z,28.04
2023-06-29T02:17:34.745Z,28.05
2023-06-29T02:18:34.712Z,28.03
2023-06-29T02:19:34.711Z,28.05
2023-06-29T02:20:34.701Z,28.03
2023-06-29T02:21:34.710Z,28.03
2023-06-29T02:22:34.680Z,28.04
2023-06-29T02:23:34.684Z,28.03
2023-06-29T02:24:34.676Z,28.04
2023-06-29T02:25:34.642Z,28.01
2023-06-29T02:26:34.648Z,28.03
2023-06-29T02:27:34.645Z,28.04
2023-06-29T02:28:34.720Z,28.03
2023-06-29T02:29:34.760Z,28.04
2023-06-29T02:30:34.833Z,28.01
2023-06-29T02:31:34.917Z,28.03
2023-06-29T02:32:34.961Z,28.01
2023-06-29T02:33:35.008Z,28.03
2023-06-29T02:34:35.083Z,28.01
2023-06-29T02:35:35.141Z,27.99
2023-06-29T02:36:35.176Z,28.03
2023-06-29T02:37:35.280Z,28.01
2023-06-29T02:38:35.350Z,28.00
2023-06-29T02:39:35.352Z,28.01
2023-06-29T02:40:35.418Z,28.03
2023-06-29T02:41:35.505Z,28.00
2023-06-29T02:42:35.541Z,27.99
2023-06-29T02:43:35.659Z,27.99
2023-06-29T02:44:35.703Z,28.01
2023-06-29T02:45:35.808Z,27.99
2023-06-29T02:46:35.843Z,28.01
2023-06-29T02:47:35.928Z,28.01
2023-06-29T02:48:35.957Z,27.99
2023-06-29T02:49:35.987Z,28.01
2023-06-29T02:50:36.040Z,28.01
2023-06-29T02:51:36.119Z,27.97
2023-06-29T02:52:36.183Z,28.00
2023-06-29T02:53:36.243Z,28.00
2023-06-29T02:54:36.333Z,28.00
2023-06-29T02:55:36.360Z,27.99
2023-06-29T02:56:36.489Z,28.00
2023-06-29T02:57:36.445Z,27.99
2023-06-29T02:58:36.520Z,27.99
2023-06-29T02:59:36.612Z,28.01
2023-06-29T03:00:36.641Z,27.99
2023-06-29T03:01:36.731Z,27.97
2023-06-29T03:02:36.833Z,27.99
2023-06-29T03:03:36.836Z,27.99
2023-06-29T03:04:36.857Z,27.99
2023-06-29T03:05:36.943Z,27.99
2023-06-29T03:06:36.978Z,27.99
2023-06-29T03:07:37.114Z,27.99
2023-06-29T03:08:37.070Z,27.97
2023-06-29T03:09:37.192Z,27.97
2023-06-29T03:10:37.242Z,27.96
2023-06-29T03:11:37.211Z,27.97
2023-06-29T03:12:37.221Z,27.96
2023-06-29T03:13:37.249Z,27.99
2023-06-29T03:14:37.325Z,27.96
2023-06-29T03:15:37.332Z,27.96
2023-06-29T03:16:37.414Z,27.96
2023-06-29T03:17:37.402Z,27.97
2023-06-29T03:18:37.369Z,27.94
2023-06-29T03:19:37.469Z,27.94
2023-06-29T03:20:37.427Z,27.99
2023-06-29T03:21:37.462Z,27.94
2023-06-29T03:22:37.644Z,27.94
2023-06-29T03:23:37.556Z,27.96
2023-06-29T03:24:37.566Z,27.96
2023-06-29T03:25:37.570Z,27.96
2023-06-29T03:26:37.609Z,27.96
2023-06-29T03:27:37.681Z,27.96
2023-06-29T03:28:37.618Z,27.94
2023-06-29T03:29:37.709Z,27.97
2023-06-29T03:30:37.721Z,27.93
2023-06-29T03:31:37.766Z,27.96
2023-06-29T03:32:37.784Z,27.94
2023-06-29T03:33:37.768Z,27.96
2023-06-29T03:34:37.778Z,27.96
2023-06-29T03:35:37.842Z,27.94
2023-06-29T03:36:37.861Z,27.92
2023-06-29T03:37:37.907Z,27.94
2023-06-29T03:38:37.901Z,27.93
2023-06-29T03:39:37.916Z,27.96
2023-06-29T03:40:37.978Z,27.94
2023-06-29T03:41:37.988Z,27.94
2023-06-29T03:42:37.943Z,27.93
2023-06-29T03:43:37.992Z,27.94
2023-06-29T03:44:38.150Z,27.96
2023-06-29T03:45:38.060Z,27.92
2023-06-29T03:46:38.071Z,27.96
2023-06-29T03:47:38.194Z,27.93
2023-06-29T03:48:38.241Z,27.94
2023-06-29T03:49:38.245Z,27.94
2023-06-29T03:50:38.251Z,27.93
2023-06-29T03:51:38.257Z,27.94
2023-06-29T03:52:38.279Z,27.93
2023-06-29T03:53:38.314Z,27.94
2023-06-29T03:54:38.308Z,27.94
2023-06-29T03:55:38.318Z,27.94
2023-06-29T03:56:38.396Z,27.94
2023-06-29T03:57:38.388Z,27.93
2023-06-29T03:58:38.438Z,27.94
2023-06-29T03:59:38.415Z,27.94
2023-06-29T04:00:38.464Z,27.94
2023-06-29T04:01:38.708Z,27.94
2023-06-29T04:02:38.515Z,27.94
2023-06-29T04:03:38.624Z,27.94
2023-06-29T04:04:38.545Z,27.97
2023-06-29T04:05:38.565Z,27.96
2023-06-29T04:06:38.557Z,27.99
2023-06-29T04:07:38.619Z,27.96
2023-06-29T04:08:38.670Z,27.96
2023-06-29T04:09:38.696Z,27.97
2023-06-29T04:10:38.736Z,27.99
2023-06-29T04:11:38.805Z,27.99
2023-06-29T04:12:38.871Z,27.97
2023-06-29T04:13:38.864Z,27.99
2023-06-29T04:14:38.882Z,27.99
2023-06-29T04:15:38.967Z,28.00
2023-06-29T04:16:39.080Z,27.99
2023-06-29T04:17:39.057Z,28.00
2023-06-29T04:18:39.137Z,28.04
2023-06-29T04:19:39.122Z,27.99
2023-06-29T04:20:39.209Z,28.00
2023-06-29T04:21:39.301Z,28.01
2023-06-29T04:22:39.316Z,28.01
2023-06-29T04:23:39.432Z,28.01
2023-06-29T04:24:39.465Z,28.03
2023-06-29T04:25:39.472Z,28.03
2023-06-29T04:26:39.559Z,28.05
2023-06-29T04:27:39.626Z,28.04
2023-06-29T04:28:39.672Z,28.01
2023-06-29T04:29:39.675Z,28.05
2023-06-29T04:30:39.763Z,28.07
2023-06-29T04:31:39.845Z,28.05
2023-06-29T04:32:40.052Z,28.03
2023-06-29T04:33:39.912Z,28.07
2023-06-29T04:34:39.937Z,28.05
2023-06-29T04:35:40.012Z,28.05
2023-06-29T04:36:40.029Z,28.05
2023-06-29T04:37:40.115Z,28.07
2023-06-29T04:38:40.211Z,28.10
2023-06-29T04:39:40.222Z,28.08
2023-06-29T04:40:40.278Z,28.11
2023-06-29T04:41:40.641Z,28.11
2023-06-29T04:42:40.385Z,28.07
2023-06-29T04:43:40.522Z,28.10
2023-06-29T04:44:40.497Z,28.11
2023-06-29T04:45:40.615Z,28.11
2023-06-29T04:46:40.810Z,28.13
2023-06-29T04:47:40.823Z,28.13
2023-06-29T04:48:40.752Z,28.13
2023-06-29T04:49:40.952Z,28.14
2023-06-29T04:50:40.908Z,28.17
2023-06-29T04:51:40.988Z,28.13
2023-06-29T04:52:41.025Z,28.15
2023-06-29T04:53:41.076Z,28.15
2023-06-29T04:54:41.146Z,28.20
2023-06-29T04:55:41.336Z,28.17
2023-06-29T04:56:41.224Z,28.20
2023-06-29T04:57:41.296Z,28.18
2023-06-29T04:58:41.377Z,28.21
2023-06-29T04:59:41.424Z,28.20
2023-06-29T05:00:41.501Z,28.23
2023-06-29T05:01:41.576Z,28.23
2023-06-29T05:02:41.698Z,28.21
2023-06-29T05:03:41.693Z,28.21
2023-06-29T05:04:41.732Z,28.24
2023-06-29T05:05:42.032Z,28.24
2023-06-29T05:06:41.850Z,28.23
2023-06-29T05:07:41.923Z,28.24
2023-06-29T05:08:41.972Z,28.25
2023-06-29T05:09:42.039Z,28.25
2023-06-29T05:10:42.136Z,28.27
2023-06-29T05:11:42.193Z,28.27
2023-06-29T05:12:42.182Z,28.27
2023-06-29T05:13:42.242Z,28.27
2023-06-29T05:14:42.299Z,28.28
2023-06-29T05:15:42.567Z,28.27
2023-06-29T05:16:42.476Z,28.28
2023-06-29T05:17:42.500Z,28.31
2023-06-29T05:18:42.541Z,28.28
2023-06-29T05:19:42.607Z,28.30
2023-06-29T05:20:42.661Z,28.30
2023-06-29T05:21:42.706Z,28.33
2023-06-29T05:22:42.745Z,28.31
2023-06-29T05:23:42.824Z,28.33
2023-06-29T05:24:42.884Z,28.34
2023-06-29T05:25:43.171Z,28.33
2023-06-29T05:26:42.950Z,28.33
2023-06-29T05:27:43.004Z,28.34
2023-06-29T05:28:49.836Z,28.30
2023-06-29T05:29:44.053Z,28.31
2023-06-29T05:30:43.055Z,28.34
2023-06-29T05:31:43.095Z,28.34
2023-06-29T05:32:43.157Z,28.30
2023-06-29T05:33:43.116Z,28.31
2023-06-29T05:34:43.013Z,28.27
2023-06-29T05:35:43.217Z,28.18
2023-06-29T05:36:43.017Z,28.10
2023-06-29T05:37:43.005Z,27.99
2023-06-29T05:38:42.984Z,27.89
2023-06-29T05:39:42.985Z,27.77
2023-06-29T05:40:43.399Z,27.72
2023-06-29T05:41:42.963Z,27.59
2023-06-29T05:42:43.026Z,27.52
2023-06-29T05:43:43.052Z,27.48
2023-06-29T05:44:43.067Z,27.42
2023-06-29T05:45:43.161Z,27.30
2023-06-29T05:46:43.103Z,27.29
2023-06-29T05:47:43.261Z,27.28
2023-06-29T05:48:43.152Z,27.25
2023-06-29T05:49:43.119Z,27.28
2023-06-29T05:50:43.332Z,27.22
2023-06-29T05:51:43.235Z,27.24
2023-06-29T05:52:43.110Z,27.22
2023-06-29T05:53:43.129Z,27.24
2023-06-29T05:54:43.128Z,27.21
2023-06-29T05:55:43.197Z,27.24
2023-06-29T05:56:43.255Z,27.28
2023-06-29T05:57:43.285Z,27.35
2023-06-29T05:58:43.362Z,27.39
2023-06-29T05:59:43.380Z,27.45
2023-06-29T06:00:43.638Z,27.49
2023-06-29T06:01:43.660Z,27.57
2023-06-29T06:02:43.558Z,27.66
2023-06-29T06:03:43.523Z,27.72
2023-06-29T06:04:43.516Z,27.79
2023-06-29T06:05:43.472Z,27.86
2023-06-29T06:06:43.482Z,27.92
2023-06-29T06:07:43.495Z,27.97
2023-06-29T06:08:43.535Z,28.04
2023-06-29T06:09:43.608Z,28.05
2023-06-29T06:10:43.752Z,28.11
2023-06-29T06:11:43.654Z,28.13
2023-06-29T06:12:43.687Z,28.17
2023-06-29T06:13:43.774Z,28.20
2023-06-29T06:14:43.895Z,28.21
2023-06-29T06:15:43.919Z,28.25
2023-06-29T06:16:44.248Z,28.27
2023-06-29T06:17:44.109Z,28.31
2023-06-29T06:18:44.024Z,28.35
2023-06-29T06:19:44.082Z,28.40
2023-06-29T06:20:44.453Z,28.37
2023-06-29T06:21:44.203Z,28.41
2023-06-29T06:22:44.215Z,28.44
2023-06-29T06:23:44.330Z,28.45
2023-06-29T06:24:44.262Z,28.50
2023-06-29T06:25:44.332Z,28.51
2023-06-29T06:26:44.346Z,28.54
2023-06-29T06:27:44.413Z,28.57
2023-06-29T06:28:44.384Z,28.58
2023-06-29T06:29:44.449Z,28.59
2023-06-29T06:30:44.669Z,28.54
2023-06-29T06:31:44.643Z,28.52
2023-06-29T06:32:44.666Z,28.41
2023-06-29T06:33:44.583Z,28.31
2023-06-29T06:34:44.591Z,28.24
2023-06-29T06:35:44.650Z,28.20
2023-06-29T06:36:44.640Z,28.14
2023-06-29T06:37:44.660Z,28.13
2023-06-29T06:38:49.994Z,28.11
2023-06-29T06:39:45.688Z,28.08
2023-06-29T06:40:45.128Z,28.03
2023-06-29T06:41:44.645Z,28.01
2023-06-29T06:42:44.644Z,27.93
2023-06-29T06:43:44.651Z,27.92
2023-06-29T06:44:44.623Z,27.89
2023-06-29T06:45:44.610Z,27.87
2023-06-29T06:46:44.716Z,27.84
2023-06-29T06:47:44.768Z,27.87
2023-06-29T06:48:44.588Z,27.89
2023-06-29T06:49:44.593Z,27.96
2023-06-29T06:50:44.753Z,27.97
2023-06-29T06:51:44.614Z,27.99
2023-06-29T06:52:44.577Z,28.04
2023-06-29T06:53:44.546Z,28.07
2023-06-29T06:54:44.617Z,28.14
2023-06-29T06:55:44.686Z,28.11
2023-06-29T06:56:44.712Z,28.17
2023-06-29T06:57:44.689Z,28.21
2023-06-29T06:58:44.699Z,28.21
2023-06-29T06:59:44.701Z,28.24
2023-06-29T07:00:44.918Z,28.28
2023-06-29T07:01:44.743Z,28.25
2023-06-29T07:02:44.811Z,28.24
2023-06-29T07:03:44.728Z,28.25
2023-06-29T07:04:44.730Z,28.28
2023-06-29T07:05:44.909Z,28.30
2023-06-29T07:06:44.822Z,28.31
2023-06-29T07:07:44.853Z,28.34
2023-06-29T07:08:44.983Z,28.35
2023-06-29T07:09:45.005Z,28.35
2023-06-29T07:10:45.297Z,28.37
2023-06-29T07:11:45.253Z,28.30
2023-06-29T07:12:45.149Z,28.37
2023-06-29T07:13:45.293Z,28.40
2023-06-29T07:14:45.214Z,28.45
2023-06-29T07:15:45.271Z,28.47
2023-06-29T07:16:45.347Z,28.50
2023-06-29T07:17:45.331Z,28.55
2023-06-29T07:18:45.345Z,28.57
2023-06-29T07:24:06.178Z,28.72
2023-06-29T07:24:45.351Z,28.85
2023-06-29T07:25:45.637Z,28.89
2023-06-29T07:26:45.291Z,28.91
2023-06-29T07:27:45.314Z,28.95
2023-06-29T07:28:45.453Z,28.99
2023-06-29T07:29:45.329Z,29.01
2023-06-29T07:30:45.343Z,29.05
2023-06-29T07:31:45.307Z,29.06
2023-06-29T07:32:45.379Z,29.12
2023-06-29T07:33:45.251Z,29.12
2023-06-29T07:34:45.265Z,29.13
2023-06-29T07:35:45.562Z,29.12
2023-06-29T07:36:45.714Z,29.13
2023-06-29T07:37:45.232Z,29.11
2023-06-29T07:38:45.186Z,29.11
2023-06-29T07:39:45.245Z,29.08
2023-06-29T07:40:46.536Z,29.01
2023-06-29T07:41:45.237Z,29.02
2023-06-29T07:42:45.208Z,29.05
2023-06-29T07:43:45.270Z,29.03
2023-06-29T07:44:45.191Z,29.02
2023-06-29T07:45:45.343Z,29.05
2023-06-29T07:46:45.183Z,29.08
2023-06-29T07:47:45.262Z,29.09
2023-06-29T07:48:45.264Z,29.09
2023-06-29T07:49:45.157Z,29.13
2023-06-29T07:50:45.104Z,29.13
2023-06-29T07:51:45.109Z,29.18
2023-06-29T07:52:45.113Z,29.16
2023-06-29T07:53:45.129Z,29.21
2023-06-29T07:54:45.124Z,29.22
2023-06-29T07:55:45.243Z,29.25
2023-06-29T07:58:45.124Z,29.32
2023-06-29T07:59:45.121Z,29.36
2023-06-29T08:00:45.177Z,29.36
2023-06-29T08:01:45.122Z,29.37
2023-06-29T08:02:45.169Z,29.42
2023-06-29T08:04:01.078Z,29.43
2023-06-29T08:06:51.328Z,29.50
2023-06-29T08:07:46.157Z,29.50
2023-06-29T08:08:45.248Z,29.56
2023-06-29T08:09:45.045Z,29.60
2023-06-29T08:10:45.176Z,29.59
2023-06-29T08:11:45.012Z,29.63
2023-06-29T08:12:45.011Z,29.64
2023-06-29T08:13:45.020Z,29.67
2023-06-29T08:14:45.043Z,29.66
2023-06-29T08:15:44.968Z,29.70
2023-06-29T08:16:44.997Z,29.69
2023-06-29T08:17:45.028Z,29.73
2023-06-29T08:18:45.175Z,29.76
2023-06-29T08:19:44.918Z,29.77
2023-06-29T08:20:45.150Z,29.79
2023-06-29T08:21:44.918Z,29.79
2023-06-29T08:22:44.935Z,29.81
2023-06-29T08:23:44.942Z,29.80
2023-06-29T08:24:44.900Z,29.79
2023-06-29T08:25:44.935Z,29.79
2023-06-29T08:26:45.663Z,29.74
2023-06-29T08:27:45.004Z,29.76
2023-06-29T08:28:45.071Z,29.72
2023-06-29T08:29:45.076Z,29.72
2023-06-29T08:30:45.255Z,29.69
2023-06-29T08:31:45.217Z,29.69
2023-06-29T08:32:45.257Z,29.66
2023-06-29T08:33:45.319Z,29.63
2023-06-29T08:34:45.307Z,29.60
2023-06-29T08:35:45.342Z,29.60
2023-06-29T08:36:45.418Z,29.57
2023-06-29T08:37:45.447Z,29.54
2023-06-29T08:38:45.533Z,29.52
2023-06-29T08:39:45.602Z,29.50
2023-06-29T08:40:45.843Z,29.48
2023-06-29T08:41:45.745Z,29.45
2023-06-29T08:42:45.724Z,29.45
2023-06-29T08:43:45.739Z,29.45
2023-06-29T08:44:45.799Z,29.45
2023-06-29T08:45:45.806Z,29.46
2023-06-29T08:46:45.876Z,29.46
2023-06-29T08:47:45.922Z,29.49
2023-06-29T08:48:45.964Z,29.48
2023-06-29T08:49:46.015Z,29.50
2023-06-29T08:50:46.213Z,29.50
2023-06-29T08:51:46.135Z,29.50
2023-06-29T08:52:46.240Z,29.50
2023-06-29T08:53:46.257Z,29.52
2023-06-29T08:54:46.285Z,29.54
2023-06-29T08:55:46.381Z,29.56
2023-06-29T08:56:46.427Z,29.56
2023-06-29T08:57:46.516Z,29.57
2023-06-29T08:58:46.506Z,29.59
2023-06-29T08:59:46.666Z,29.59
2023-06-29T09:00:46.943Z,29.62
2023-06-29T09:01:46.621Z,29.63
2023-06-29T09:02:46.827Z,29.62
2023-06-29T09:03:46.912Z,29.64
2023-06-29T09:04:46.765Z,29.66
2023-06-29T09:05:46.963Z,29.66
2023-06-29T09:06:46.857Z,29.69
2023-06-29T09:07:46.943Z,29.69
2023-06-29T09:08:47.036Z,29.69
2023-06-29T09:09:46.982Z,29.70
2023-06-29T09:10:47.071Z,29.73
2023-06-29T09:11:47.008Z,29.70
2023-06-29T09:12:47.029Z,29.70
2023-06-29T09:13:47.104Z,29.70
2023-06-29T09:14:47.191Z,29.73
2023-06-29T09:15:47.197Z,29.72
2023-06-29T09:16:47.146Z,29.74
2023-06-29T09:17:47.453Z,29.73
2023-06-29T09:18:47.255Z,29.73
2023-06-29T09:19:47.270Z,29.72
2023-06-29T09:20:47.525Z,29.76
2023-06-29T09:21:48.298Z,29.73
2023-06-29T09:22:47.444Z,29.76
2023-06-29T09:23:49.238Z,29.74
2023-06-29T09:25:01.462Z,29.74
2023-06-29T09:25:48.472Z,29.73
2023-06-29T09:26:47.777Z,29.77
2023-06-29T09:27:47.376Z,29.76
2023-06-29T09:28:47.373Z,29.74
2023-06-29T09:29:47.377Z,29.77
2023-06-29T09:30:47.452Z,29.74
2023-06-29T09:31:47.903Z,29.73
2023-06-29T09:32:47.389Z,29.76
2023-06-29T09:33:47.856Z,29.76
2023-06-29T09:34:47.366Z,29.76
2023-06-29T09:35:47.492Z,29.76
2023-06-29T09:36:47.329Z,29.76
2023-06-29T09:37:47.289Z,29.79
2023-06-29T09:38:47.285Z,29.79
2023-06-29T09:39:47.308Z,29.81
2023-06-29T09:40:47.362Z,29.80
2023-06-29T09:41:47.338Z,29.83
2023-06-29T09:42:47.820Z,29.83
2023-06-29T09:43:47.328Z,29.87
2023-06-29T09:44:47.336Z,29.86
2023-06-29T09:45:47.730Z,29.87
2023-06-29T09:49:06.577Z,29.87
2023-06-29T09:49:47.420Z,29.88
2023-06-29T09:50:47.772Z,29.90
2023-06-29T09:51:47.324Z,29.94
2023-06-29T09:52:47.368Z,29.96
2023-06-29T09:53:47.324Z,29.96
2023-06-29T09:54:47.821Z,29.99
2023-06-29T09:55:47.318Z,29.99
2023-06-29T09:56:47.304Z,30.01
2023-06-29T09:57:47.307Z,30.03
2023-06-29T09:58:47.748Z,30.06
2023-06-29T09:59:47.335Z,30.08
2023-06-29T10:00:47.514Z,30.10
2023-06-29T10:01:47.288Z,30.11
2023-06-29T10:02:47.354Z,30.13
2023-06-29T10:03:47.286Z,30.14
2023-06-29T10:04:47.301Z,30.18
2023-06-29T10:05:47.263Z,30.18
2023-06-29T10:06:47.371Z,30.20
2023-06-29T10:07:47.301Z,30.21
2023-06-29T10:08:47.224Z,30.21
2023-06-29T10:09:47.186Z,30.20
2023-06-29T10:10:47.308Z,30.23
2023-06-29T10:11:47.197Z,30.24
2023-06-29T10:12:47.217Z,30.24
2023-06-29T10:13:47.224Z,30.26
2023-06-29T10:14:47.285Z,30.27
2023-06-29T10:15:47.193Z,30.26
2023-06-29T10:16:47.202Z,30.27
2023-06-29T10:17:47.178Z,30.26
2023-06-29T10:18:47.220Z,30.26
2023-06-29T10:19:47.339Z,30.27
2023-06-29T10:20:47.366Z,30.28
2023-06-29T10:21:47.136Z,30.28
2023-06-29T10:22:47.179Z,30.28
2023-06-29T10:23:47.204Z,30.30
2023-06-29T10:24:47.116Z,30.34
2023-06-29T10:25:47.119Z,30.38
2023-06-29T10:26:47.328Z,30.34
2023-06-29T10:27:47.112Z,30.35
2023-06-29T10:28:47.095Z,30.37
2023-06-29T10:29:47.045Z,30.38
2023-06-29T10:30:47.277Z,30.35
2023-06-29T10:31:47.059Z,30.34
2023-06-29T10:32:47.077Z,30.34
2023-06-29T10:33:47.282Z,30.35
2023-06-29T10:34:47.082Z,30.35
2023-06-29T10:35:47.039Z,30.34
2023-06-29T10:36:47.106Z,30.31
2023-06-29T10:37:47.019Z,30.32
2023-06-29T10:38:47.304Z,30.32
2023-06-29T10:39:46.997Z,30.35
2023-06-29T10:41:48.020Z,30.37
2023-06-29T10:42:47.102Z,30.38
2023-06-29T10:43:47.171Z,30.35
2023-06-29T10:44:47.217Z,30.38
2023-06-29T10:45:47.273Z,30.38
2023-06-29T10:46:47.470Z,30.39
2023-06-29T10:47:47.473Z,30.41
2023-06-29T10:48:49.115Z,30.42
2023-06-29T10:49:47.498Z,30.41
2023-06-29T10:50:47.645Z,30.42
2023-06-29T10:51:47.747Z,30.44
2023-06-29T10:52:47.689Z,30.48
2023-06-29T10:53:47.813Z,30.47
2023-06-29T10:54:47.968Z,30.48
2023-06-29T10:55:47.826Z,30.48
2023-06-29T10:56:47.878Z,30.48
2023-06-29T10:57:48.027Z,30.49
2023-06-29T10:58:47.925Z,30.49
2023-06-29T10:59:48.711Z,30.51
2023-06-29T11:00:48.242Z,30.52
2023-06-29T11:01:48.128Z,30.54
2023-06-29T11:02:48.318Z,30.52
2023-06-29T11:03:48.210Z,30.55
2023-06-29T11:04:48.245Z,30.54
2023-06-29T11:05:48.300Z,30.57
2023-06-29T11:06:48.362Z,30.55
2023-06-29T11:07:48.420Z,30.58
2023-06-29T11:08:48.398Z,30.58
2023-06-29T11:09:48.411Z,30.58
2023-06-29T11:10:48.485Z,30.58
2023-06-29T11:11:48.536Z,30.58
2023-06-29T11:12:48.588Z,30.59
2023-06-29T11:13:48.562Z,30.61
2023-06-29T11:14:49.642Z,30.65
2023-06-29T11:15:48.842Z,30.62
2023-06-29T11:16:48.999Z,30.59
2023-06-29T11:17:48.594Z,30.62
2023-06-29T11:18:48.595Z,30.64
2023-06-29T11:19:48.593Z,30.62
2023-06-29T11:20:48.537Z,30.65
2023-06-29T11:21:48.600Z,30.62
2023-06-29T11:22:48.537Z,30.59
2023-06-29T11:23:48.576Z,30.62
2023-06-29T11:24:48.784Z,30.58
2023-06-29T11:25:48.528Z,30.59
2023-06-29T11:26:48.518Z,30.57
2023-06-29T11:27:48.472Z,30.57
2023-06-29T11:28:48.518Z,30.55
2023-06-29T11:29:48.487Z,30.54
2023-06-29T11:30:50.943Z,30.49
2023-06-29T11:31:48.537Z,30.49
2023-06-29T11:32:48.503Z,30.52
2023-06-29T11:33:48.459Z,30.49
2023-06-29T11:34:48.519Z,30.49
2023-06-29T11:35:48.567Z,30.48
2023-06-29T11:36:59.765Z,30.47
2023-06-29T11:37:49.466Z,30.44
2023-06-29T11:38:48.430Z,30.44
2023-06-29T11:39:48.592Z,30.44
2023-06-29T11:40:48.459Z,30.41
2023-06-29T11:41:48.415Z,30.41
2023-06-29T11:42:48.551Z,30.42
2023-06-29T11:43:48.414Z,30.39
2023-06-29T11:44:48.384Z,30.39
2023-06-29T11:45:48.762Z,30.37
2023-06-29T11:46:54.838Z,30.38
2023-06-29T11:47:49.526Z,30.38
2023-06-29T11:48:48.545Z,30.37
2023-06-29T11:49:48.492Z,30.35
2023-06-29T11:50:48.524Z,30.35
2023-06-29T11:51:48.525Z,30.32
2023-06-29T11:52:48.522Z,30.31
2023-06-29T11:53:48.522Z,30.32
2023-06-29T11:54:48.475Z,30.28
2023-06-29T11:55:48.545Z,30.32
2023-06-29T11:56:48.564Z,30.31
2023-06-29T11:57:48.612Z,30.30
2023-06-29T11:58:48.656Z,30.30
2023-06-29T11:59:48.724Z,30.27
2023-06-29T12:00:48.900Z,30.26
2023-06-29T12:01:48.772Z,30.27
2023-06-29T12:02:48.882Z,30.27
2023-06-29T12:03:48.971Z,30.26
2023-06-29T12:04:48.988Z,30.26
2023-06-29T12:05:50.422Z,30.24
2023-06-29T12:06:49.002Z,30.27
2023-06-29T12:07:49.245Z,30.24
2023-06-29T12:08:49.090Z,30.24
2023-06-29T12:09:49.103Z,30.24
2023-06-29T12:10:49.102Z,30.24
2023-06-29T12:11:49.168Z,30.24
2023-06-29T12:12:49.169Z,30.21
2023-06-29T12:13:49.229Z,30.24
2023-06-29T12:14:49.230Z,30.21
2023-06-29T12:18:49.646Z,30.20
2023-06-29T12:20:08.459Z,30.20
2023-06-29T12:20:50.393Z,30.18
2023-06-29T12:21:51.418Z,30.20
2023-06-29T12:22:49.199Z,30.21
2023-06-29T12:23:49.237Z,30.20
2023-06-29T12:24:49.236Z,30.17
2023-06-29T12:25:49.445Z,30.17
2023-06-29T12:26:49.258Z,30.18
2023-06-29T12:27:49.261Z,30.20
2023-06-29T12:28:49.346Z,30.16
2023-06-29T12:29:49.284Z,30.18
2023-06-29T12:30:49.428Z,30.16
2023-06-29T12:31:49.331Z,30.16
2023-06-29T12:32:49.344Z,30.14
2023-06-29T12:33:49.319Z,30.18
2023-06-29T12:34:50.949Z,30.16
2023-06-29T12:35:49.628Z,30.16
2023-06-29T12:36:49.367Z,30.14
2023-06-29T12:37:49.281Z,30.14
2023-06-29T12:38:49.264Z,30.14
2023-06-29T12:39:49.266Z,30.14
2023-06-29T12:40:49.322Z,30.14
2023-06-29T12:41:49.318Z,30.16
2023-06-29T12:42:49.259Z,30.16
2023-06-29T12:43:49.275Z,30.17
2023-06-29T12:44:49.244Z,30.14
2023-06-29T12:45:49.304Z,30.13
2023-06-29T12:46:49.468Z,30.13
2023-06-29T12:47:49.332Z,30.14
2023-06-29T12:48:49.254Z,30.14
2023-06-29T12:49:49.242Z,30.14
2023-06-29T12:50:49.372Z,30.14
2023-06-29T12:51:49.344Z,30.14
2023-06-29T12:52:49.293Z,30.13
2023-06-29T12:53:49.228Z,30.18
2023-06-29T12:54:49.254Z,30.13
2023-06-29T12:55:49.541Z,30.16
2023-06-29T12:56:49.214Z,30.17
2023-06-29T12:57:49.241Z,30.16
2023-06-29T12:58:49.230Z,30.17
2023-06-29T12:59:49.301Z,30.13
2023-06-29T13:00:49.302Z,30.16
2023-06-29T13:01:49.264Z,30.17
2023-06-29T13:02:50.090Z,30.17
2023-06-29T13:03:49.345Z,30.18
2023-06-29T13:04:49.217Z,30.18
2023-06-29T13:05:49.165Z,30.18
2023-06-29T13:06:49.217Z,30.18